Time;durP1;ratioP1;P1;durP2;ratioP2;P2;SDS_P1;SDS_P2;PMS_P1;PMS_P2;Temp;Humidity;BMP_temperature;BMP_pressure;BME280_temperature;BME280_humidity;BME280_pressure;Samples;Min_cycle;Max_cycle;Signal;HPM_P1;HPM_P2
2021/07/25 00:02:16;;;;;;;;;;;16.40;99.90;;;;;;5095132;28;19924;-79
2021/07/25 00:04:43;;;;;;;;;;;16.40;99.90;;;;;;5095314;28;19924;-80
2021/07/25 00:07:11;;;;;;;;;;;16.40;99.90;;;;;;5095295;28;19932;-79
2021/07/25 00:09:38;;;;;;;;;;;16.40;99.90;;;;;;5095129;28;19930;-79
2021/07/25 00:12:05;;;;;;;;;;;16.30;99.90;;;;;;5094311;28;19927;-79
2021/07/25 00:14:32;;;;;;;;;;;16.30;99.90;;;;;;5095169;28;19931;-79
2021/07/25 00:16:59;;;;;;;;;;;16.30;99.90;;;;;;5095124;28;19931;-79
2021/07/25 00:19:26;;;;;;;;;;;16.30;99.90;;;;;;5094408;28;19924;-80
2021/07/25 00:21:54;;;;;;;;;;;16.40;99.90;;;;;;5095149;28;19967;-79
2021/07/25 00:24:28;;;;;;;;;;;16.30;99.90;;;;;;5094998;28;19931;-79
2021/07/25 00:26:57;;;;;;;;;;;16.30;99.90;;;;;;5094981;28;19928;-79
2021/07/25 00:29:25;;;;;;;;;;;16.30;99.90;;;;;;5095073;28;19924;-79
2021/07/25 00:31:51;;;;;;;;;;;16.20;99.90;;;;;;5095245;28;19970;-79
2021/07/25 00:34:18;;;;;;;;;;;16.20;99.90;;;;;;5095132;28;19928;-79
2021/07/25 00:36:45;;;;;;;;;;;16.20;99.90;;;;;;5094905;28;20361;-80
2021/07/25 00:39:12;;;;;;;;;;;16.30;99.90;;;;;;5094821;28;19935;-79
2021/07/25 00:41:40;;;;;;;;;;;16.20;99.90;;;;;;5094827;28;19924;-79
2021/07/25 00:44:07;;;;;;;;;;;16.20;99.90;;;;;;5094735;28;19946;-79
2021/07/25 00:46:34;;;;;;;;;;;16.20;99.90;;;;;;5096012;28;19924;-79
2021/07/25 00:49:02;;;;;;;;;;;16.20;99.90;;;;;;5098921;28;19947;-79
2021/07/25 00:51:30;;;;;;;;;;;16.20;99.90;;;;;;5098894;28;19924;-79
2021/07/25 00:53:56;;;;;;;;;;;16.20;99.90;;;;;;5058492;28;19925;-79
2021/07/25 00:56:23;;;;;;;;;;;16.10;99.90;;;;;;5058483;28;19931;-79
2021/07/25 00:58:51;;;;;;;;;;;16.10;99.90;;;;;;5058459;28;19935;-79
2021/07/25 01:01:20;;;;;;;;;;;16.00;99.90;;;;;;5058305;28;19928;-79
2021/07/25 01:03:50;;;;;;;;;;;16.00;99.90;;;;;;5058289;28;19925;-79
2021/07/25 01:06:22;;;;;;;;;;;16.00;99.90;;;;;;5058221;28;19935;-79
2021/07/25 01:08:49;;;;;;;;;;;16.00;99.90;;;;;;5058261;28;19925;-79
2021/07/25 01:11:16;;;;;;;;;;;16.00;99.90;;;;;;5058065;28;19931;-79
2021/07/25 01:13:44;;;;;;;;;;;15.90;99.90;;;;;;5058226;28;19925;-80
2021/07/25 01:16:12;;;;;;;;;;;15.90;99.90;;;;;;5058118;28;19925;-80
2021/07/25 01:18:46;;;;;;;;;;;15.90;99.90;;;;;;5057889;28;19992;-79
2021/07/25 01:21:15;;;;;;;;;;;15.90;99.90;;;;;;5057930;28;19925;-79
2021/07/25 01:23:42;;;;;;;;;;;15.90;99.90;;;;;;5057723;28;19924;-79
2021/07/25 01:26:09;;;;;;;;;;;15.90;99.90;;;;;;5057831;28;19925;-79
2021/07/25 01:28:35;;;;;;;;;;;15.90;99.90;;;;;;5057622;28;19929;-79
2021/07/25 01:31:03;;;;;;;;;;;15.90;99.90;;;;;;5057665;28;19925;-78
2021/07/25 01:33:31;;;;;;;;;;;15.80;99.90;;;;;;5058025;28;20338;-74
2021/07/25 01:35:58;;;;;;;;;;;15.90;99.90;;;;;;5057733;28;19931;-80
2021/07/25 01:38:26;;;;;;;;;;;15.90;99.90;;;;;;5057313;28;19939;-79
2021/07/25 01:41:04;;;;;;;;;;;15.80;99.90;;;;;;5057438;28;19936;-79
2021/07/25 01:43:31;;;;;;;;;;;15.80;99.90;;;;;;5057599;28;19924;-78
2021/07/25 01:45:58;;;;;;;;;;;15.80;99.90;;;;;;5057633;28;19925;-79
2021/07/25 01:48:25;;;;;;;;;;;15.70;99.90;;;;;;5057404;28;19935;-79
2021/07/25 01:50:51;;;;;;;;;;;15.80;99.90;;;;;;5057270;28;19968;-78
2021/07/25 01:53:18;;;;;;;;;;;15.80;99.90;;;;;;5087250;28;19939;-79
2021/07/25 01:55:46;;;;;;;;;;;15.70;99.90;;;;;;5097513;28;20269;-79
2021/07/25 01:58:13;;;;;;;;;;;15.60;99.90;;;;;;5096833;28;19930;-79
2021/07/25 02:00:40;;;;;;;;;;;15.70;99.90;;;;;;5097264;28;19924;-79
2021/07/25 02:03:07;;;;;;;;;;;15.60;99.90;;;;;;5097314;28;19923;-80
2021/07/25 02:05:35;;;;;;;;;;;15.60;99.90;;;;;;5097272;28;19924;-80
2021/07/25 02:08:02;;;;;;;;;;;15.60;99.90;;;;;;5097189;28;20369;-80
2021/07/25 02:10:29;;;;;;;;;;;15.50;99.90;;;;;;5097179;28;19924;-79
2021/07/25 02:12:57;;;;;;;;;;;15.50;99.90;;;;;;5097122;28;19928;-80
2021/07/25 02:15:24;;;;;;;;;;;15.40;99.90;;;;;;5097095;28;19934;-80
2021/07/25 02:17:50;;;;;;;;;;;15.40;99.90;;;;;;5097004;28;19924;-79
2021/07/25 02:20:17;;;;;;;;;;;15.30;99.90;;;;;;5096878;28;20277;-80
2021/07/25 02:22:44;;;;;;;;;;;15.30;99.90;;;;;;5097087;28;20038;-79
2021/07/25 02:25:12;;;;;;;;;;;15.20;99.90;;;;;;5096784;28;20335;-80
2021/07/25 02:27:39;;;;;;;;;;;15.20;99.90;;;;;;5097202;28;19924;-78
2021/07/25 02:30:08;;;;;;;;;;;15.10;99.90;;;;;;5096801;28;19946;-79
2021/07/25 02:32:35;;;;;;;;;;;15.10;99.90;;;;;;5096640;28;20362;-79
2021/07/25 02:35:02;;;;;;;;;;;15.10;99.90;;;;;;5096961;28;19934;-79
2021/07/25 02:37:29;;;;;;;;;;;15.10;99.90;;;;;;5096635;28;19928;-79
2021/07/25 02:39:55;;;;;;;;;;;15.10;99.90;;;;;;5096695;28;19924;-80
2021/07/25 02:42:22;;;;;;;;;;;15.10;99.90;;;;;;5096551;28;19928;-80
2021/07/25 02:44:49;;;;;;;;;;;15.20;99.90;;;;;;5096456;28;19924;-79
2021/07/25 02:47:17;;;;;;;;;;;15.10;99.90;;;;;;5096535;28;19934;-80
2021/07/25 02:49:44;;;;;;;;;;;15.20;99.90;;;;;;5096303;28;19924;-80
2021/07/25 02:52:11;;;;;;;;;;;15.20;99.90;;;;;;5096111;28;19924;-80
2021/07/25 02:54:38;;;;;;;;;;;15.20;99.90;;;;;;5096256;28;19924;-79
2021/07/25 02:57:05;;;;;;;;;;;15.30;99.90;;;;;;5096124;28;19935;-80
2021/07/25 02:59:32;;;;;;;;;;;15.30;99.90;;;;;;5096206;28;19950;-80
2021/07/25 03:01:58;;;;;;;;;;;15.30;99.90;;;;;;5096260;28;20341;-80
2021/07/25 03:04:27;;;;;;;;;;;15.30;99.90;;;;;;5096116;28;19924;-80
2021/07/25 03:06:53;;;;;;;;;;;15.30;99.90;;;;;;5096180;28;19924;-79
2021/07/25 03:09:20;;;;;;;;;;;15.30;99.90;;;;;;5095362;28;20019;-79
2021/07/25 03:11:47;;;;;;;;;;;15.30;99.90;;;;;;5096056;28;19938;-80
2021/07/25 03:14:14;;;;;;;;;;;15.30;99.90;;;;;;5096014;28;19934;-80
2021/07/25 03:16:43;;;;;;;;;;;15.40;99.90;;;;;;5095155;28;20201;-80
2021/07/25 03:19:10;;;;;;;;;;;15.40;99.90;;;;;;5095781;28;19928;-80
2021/07/25 03:21:38;;;;;;;;;;;15.40;99.90;;;;;;5095705;28;19982;-80
2021/07/25 03:24:05;;;;;;;;;;;15.40;99.90;;;;;;5095844;28;19924;-80
2021/07/25 03:26:32;;;;;;;;;;;15.40;99.90;;;;;;5096119;28;19932;-80
2021/07/25 03:28:58;;;;;;;;;;;15.40;99.90;;;;;;5095686;28;19934;-80
2021/07/25 03:31:25;;;;;;;;;;;15.40;99.90;;;;;;5095582;28;20347;-79
2021/07/25 03:33:53;;;;;;;;;;;15.40;99.90;;;;;;5095554;28;19928;-80
2021/07/25 03:36:21;;;;;;;;;;;15.40;99.90;;;;;;5095801;28;19924;-80
2021/07/25 03:38:49;;;;;;;;;;;15.40;99.90;;;;;;5095495;28;19931;-81
2021/07/25 03:41:16;;;;;;;;;;;15.40;99.90;;;;;;5095446;28;19924;-81
2021/07/25 03:43:43;;;;;;;;;;;15.40;99.90;;;;;;5095402;28;19934;-80
2021/07/25 03:46:10;;;;;;;;;;;15.40;99.90;;;;;;5095580;28;19924;-80
2021/07/25 03:48:37;;;;;;;;;;;15.40;99.90;;;;;;5095393;28;19939;-81
2021/07/25 03:51:04;;;;;;;;;;;15.50;99.90;;;;;;5095574;28;19924;-80
2021/07/25 03:53:30;;;;;;;;;;;15.50;99.90;;;;;;5095267;28;20342;-79
2021/07/25 03:55:59;;;;;;;;;;;15.50;99.90;;;;;;5095447;28;19938;-80
2021/07/25 03:58:26;;;;;;;;;;;15.50;99.90;;;;;;5095232;28;19924;-80
2021/07/25 04:00:52;;;;;;;;;;;15.50;99.90;;;;;;5095436;28;19928;-80
2021/07/25 04:03:19;;;;;;;;;;;15.50;99.90;;;;;;5095124;28;20415;-80
2021/07/25 04:05:46;;;;;;;;;;;15.50;99.90;;;;;;5095121;28;19924;-80
2021/07/25 04:08:15;;;;;;;;;;;15.50;99.90;;;;;;5095203;28;20372;-80
2021/07/25 04:10:42;;;;;;;;;;;15.50;99.90;;;;;;5095282;28;20277;-80
2021/07/25 04:13:10;;;;;;;;;;;15.50;99.90;;;;;;5094962;28;19932;-79
2021/07/25 04:15:40;;;;;;;;;;;15.50;99.90;;;;;;5095308;28;19924;-80
2021/07/25 04:18:07;;;;;;;;;;;15.50;99.90;;;;;;5095115;28;19931;-80
2021/07/25 04:20:34;;;;;;;;;;;15.40;99.90;;;;;;5096094;28;19934;-79
2021/07/25 04:23:02;;;;;;;;;;;15.50;99.90;;;;;;5099296;28;19924;-79
2021/07/25 04:25:29;;;;;;;;;;;15.50;99.90;;;;;;5099225;28;19935;-80
2021/07/25 04:27:56;;;;;;;;;;;15.50;99.90;;;;;;5099206;28;20319;-79
2021/07/25 04:30:25;;;;;;;;;;;15.50;99.90;;;;;;5099314;28;19924;-79
2021/07/25 04:32:52;;;;;;;;;;;15.50;99.90;;;;;;5099137;28;19927;-79
2021/07/25 04:35:20;;;;;;;;;;;15.50;99.90;;;;;;5098942;28;20356;-80
2021/07/25 04:37:50;;;;;;;;;;;15.50;99.90;;;;;;5098948;28;19934;-80
2021/07/25 04:40:17;;;;;;;;;;;15.50;99.90;;;;;;5099315;28;19924;-79
2021/07/25 04:42:45;;;;;;;;;;;15.50;99.90;;;;;;5098846;28;19934;-79
2021/07/25 04:45:12;;;;;;;;;;;15.50;99.90;;;;;;5099043;28;19946;-79
2021/07/25 04:47:42;;;;;;;;;;;15.50;99.90;;;;;;5098459;28;20265;-78
2021/07/25 04:50:09;;;;;;;;;;;15.50;99.90;;;;;;5098788;28;20249;-79
2021/07/25 04:52:37;;;;;;;;;;;15.50;99.90;;;;;;5098476;28;20376;-79
2021/07/25 04:55:04;;;;;;;;;;;15.50;99.90;;;;;;5098483;28;19924;-80
2021/07/25 04:57:31;;;;;;;;;;;15.50;99.90;;;;;;5098640;28;20273;-80
2021/07/25 04:59:58;;;;;;;;;;;15.50;99.90;;;;;;5098523;28;20345;-80
2021/07/25 05:02:26;;;;;;;;;;;15.60;99.90;;;;;;5098516;28;20353;-79
2021/07/25 05:04:54;;;;;;;;;;;15.60;99.90;;;;;;5098799;28;19928;-79
2021/07/25 05:07:21;;;;;;;;;;;15.60;99.90;;;;;;5098402;28;19934;-79
2021/07/25 05:09:48;;;;;;;;;;;15.60;99.90;;;;;;5098270;28;19935;-78
2021/07/25 05:12:18;;;;;;;;;;;15.60;99.90;;;;;;5098314;28;19934;-80
2021/07/25 05:14:47;;;;;;;;;;;15.60;99.90;;;;;;5098430;28;19924;-80
2021/07/25 05:17:15;;;;;;;;;;;15.60;99.90;;;;;;5098149;28;20277;-79
2021/07/25 05:19:46;;;;;;;;;;;15.60;99.90;;;;;;5098142;28;20256;-80
2021/07/25 05:22:16;;;;;;;;;;;15.60;99.90;;;;;;5098075;28;19924;-78
2021/07/25 05:24:43;;;;;;;;;;;15.60;99.90;;;;;;5098239;28;19932;-79
2021/07/25 05:27:10;;;;;;;;;;;15.70;99.90;;;;;;5097856;28;19985;-79
2021/07/25 05:29:37;;;;;;;;;;;15.70;99.90;;;;;;5097993;28;19930;-79
2021/07/25 05:32:04;;;;;;;;;;;15.80;99.90;;;;;;5096889;28;20361;-78
2021/07/25 05:34:31;;;;;;;;;;;15.80;99.90;;;;;;5097811;28;19924;-79
2021/07/25 05:36:58;;;;;;;;;;;15.80;99.90;;;;;;5097968;28;19935;-80
2021/07/25 05:39:26;;;;;;;;;;;15.80;99.90;;;;;;5097758;28;19942;-80
2021/07/25 05:41:53;;;;;;;;;;;15.80;99.90;;;;;;5097874;28;19924;-79
2021/07/25 05:44:20;;;;;;;;;;;15.80;99.90;;;;;;5097592;28;20375;-79
2021/07/25 05:46:47;;;;;;;;;;;15.90;99.90;;;;;;5097931;28;19924;-79
2021/07/25 05:49:13;;;;;;;;;;;15.90;99.90;;;;;;5097559;28;19946;-79
2021/07/25 05:51:40;;;;;;;;;;;16.00;99.90;;;;;;5097328;28;20346;-79
2021/07/25 05:54:07;;;;;;;;;;;16.10;99.90;;;;;;5097478;28;19923;-79
2021/07/25 05:56:36;;;;;;;;;;;16.10;99.90;;;;;;5097446;28;19934;-79
2021/07/25 05:59:03;;;;;;;;;;;16.20;99.90;;;;;;5097264;28;20346;-82
2021/07/25 06:01:30;;;;;;;;;;;16.30;99.90;;;;;;5097560;28;19977;-82
2021/07/25 06:03:57;;;;;;;;;;;16.40;99.90;;;;;;5097433;28;19930;-82
2021/07/25 06:06:24;;;;;;;;;;;16.50;99.90;;;;;;5097572;28;19931;-82
2021/07/25 06:08:51;;;;;;;;;;;16.60;99.90;;;;;;5097390;28;19928;-81
2021/07/25 06:11:21;;;;;;;;;;;16.70;99.90;;;;;;5097145;28;20342;-81
2021/07/25 06:13:49;;;;;;;;;;;16.70;99.90;;;;;;5097123;28;20311;-82
2021/07/25 06:16:16;;;;;;;;;;;16.90;99.90;;;;;;5097152;28;19935;-82
2021/07/25 06:18:45;;;;;;;;;;;16.90;99.90;;;;;;5097051;28;19934;-82
2021/07/25 06:21:12;;;;;;;;;;;17.00;99.90;;;;;;5097000;28;19977;-82
2021/07/25 06:23:39;;;;;;;;;;;17.10;99.90;;;;;;5097245;28;19928;-82
2021/07/25 06:26:06;;;;;;;;;;;17.10;99.90;;;;;;5096932;28;19924;-82
2021/07/25 06:28:33;;;;;;;;;;;17.30;99.90;;;;;;5096901;28;19934;-82
2021/07/25 06:31:01;;;;;;;;;;;17.40;99.90;;;;;;5096680;28;19938;-82
2021/07/25 06:33:29;;;;;;;;;;;17.60;99.90;;;;;;5096976;28;19924;-81
2021/07/25 06:35:56;;;;;;;;;;;17.80;99.90;;;;;;5096885;28;19924;-79
2021/07/25 06:38:23;;;;;;;;;;;18.00;99.90;;;;;;5096781;28;19924;-79
2021/07/25 06:40:50;;;;;;;;;;;18.20;99.90;;;;;;5096523;28;20230;-79
2021/07/25 06:43:17;;;;;;;;;;;18.50;99.90;;;;;;5096572;28;19924;-79
2021/07/25 06:45:44;;;;;;;;;;;19.00;99.90;;;;;;5096424;28;19935;-79
2021/07/25 06:48:19;;;;;;;;;;;19.20;99.90;;;;;;5096722;28;19924;-79
2021/07/25 06:50:46;;;;;;;;;;;19.60;99.90;;;;;;5096415;28;19932;-79
2021/07/25 06:53:13;;;;;;;;;;;20.10;99.90;;;;;;5096276;28;19924;-79
2021/07/25 06:55:40;;;;;;;;;;;20.40;99.90;;;;;;5096587;28;19939;-79
2021/07/25 06:58:06;;;;;;;;;;;20.40;99.90;;;;;;5096235;28;20272;-79
2021/07/25 07:00:34;;;;;;;;;;;20.30;99.90;;;;;;5096099;28;19923;-79
2021/07/25 07:03:00;;;;;;;;;;;20.00;99.90;;;;;;5096536;28;20253;-79
2021/07/25 07:05:29;;;;;;;;;;;19.70;99.90;;;;;;5096380;28;19934;-79
2021/07/25 07:07:57;;;;;;;;;;;19.40;99.90;;;;;;5096321;28;19924;-79
2021/07/25 07:10:25;;;;;;;;;;;19.00;99.90;;;;;;5096275;28;19946;-79
2021/07/25 07:12:52;;;;;;;;;;;18.70;99.90;;;;;;5096002;28;20367;-79
2021/07/25 07:15:19;;;;;;;;;;;18.60;99.90;;;;;;5095974;28;19928;-79
2021/07/25 07:17:46;;;;;;;;;;;18.50;99.90;;;;;;5095868;28;19935;-79
2021/07/25 07:20:13;;;;;;;;;;;18.60;99.90;;;;;;5095828;28;19924;-79
2021/07/25 07:22:41;;;;;;;;;;;18.50;99.90;;;;;;5096033;28;19928;-79
2021/07/25 07:25:08;;;;;;;;;;;18.50;99.90;;;;;;5095708;28;19924;-79
2021/07/25 07:27:35;;;;;;;;;;;18.60;99.90;;;;;;5095872;28;19930;-79
2021/07/25 07:30:02;;;;;;;;;;;18.50;99.90;;;;;;5095797;28;20329;-79
2021/07/25 07:32:29;;;;;;;;;;;18.50;99.90;;;;;;5095630;28;20358;-79
2021/07/25 07:34:55;;;;;;;;;;;18.60;99.90;;;;;;5095792;28;20262;-79
2021/07/25 07:37:22;;;;;;;;;;;18.50;99.90;;;;;;5095666;28;19928;-79
2021/07/25 07:39:50;;;;;;;;;;;18.40;99.90;;;;;;5095339;28;19934;-79
2021/07/25 07:42:17;;;;;;;;;;;18.40;99.90;;;;;;5095580;28;19934;-78
2021/07/25 07:44:44;;;;;;;;;;;18.60;99.90;;;;;;5095743;28;19924;-77
2021/07/25 07:47:11;;;;;;;;;;;18.60;99.90;;;;;;5095738;28;19936;-77
2021/07/25 07:49:38;;;;;;;;;;;18.70;99.90;;;;;;5095558;28;19930;-80
2021/07/25 07:52:05;;;;;;;;;;;18.70;99.90;;;;;;5095319;28;19934;-79
2021/07/25 07:54:32;;;;;;;;;;;18.70;99.90;;;;;;5095254;28;19930;-79
2021/07/25 07:57:00;;;;;;;;;;;18.70;99.90;;;;;;5094860;28;20342;-78
2021/07/25 07:59:27;;;;;;;;;;;18.70;99.90;;;;;;5095323;28;19923;-78
2021/07/25 08:01:54;;;;;;;;;;;18.70;99.90;;;;;;5095411;28;19931;-78
2021/07/25 08:04:21;;;;;;;;;;;18.60;99.90;;;;;;5091834;28;19942;-79
2021/07/25 08:06:47;;;;;;;;;;;18.50;99.90;;;;;;5092363;28;19934;-79
2021/07/25 08:09:14;;;;;;;;;;;18.50;99.90;;;;;;5095102;28;20293;-79
2021/07/25 08:11:45;;;;;;;;;;;18.60;99.90;;;;;;5095253;28;20283;-79
2021/07/25 08:14:14;;;;;;;;;;;18.70;99.90;;;;;;5094929;28;19924;-79
2021/07/25 08:16:41;;;;;;;;;;;18.90;99.90;;;;;;5095232;28;19928;-78
2021/07/25 08:19:08;;;;;;;;;;;19.00;99.90;;;;;;5094869;28;19934;-78
2021/07/25 08:21:35;;;;;;;;;;;19.30;99.90;;;;;;5095179;28;20284;-78
2021/07/25 08:24:01;;;;;;;;;;;19.70;99.90;;;;;;5094987;28;20272;-78
2021/07/25 08:26:28;;;;;;;;;;;20.20;99.90;;;;;;5094894;28;20261;-79
2021/07/25 08:28:55;;;;;;;;;;;20.50;99.90;;;;;;5095053;28;19924;-78
2021/07/25 08:31:23;;;;;;;;;;;20.70;99.90;;;;;;5094917;28;19940;-78
2021/07/25 08:33:50;;;;;;;;;;;20.60;99.90;;;;;;5094754;28;19934;-78
2021/07/25 08:36:17;;;;;;;;;;;20.50;99.90;;;;;;5094866;28;19924;-78
2021/07/25 08:38:44;;;;;;;;;;;20.30;99.90;;;;;;5094859;28;20261;-78
2021/07/25 08:41:12;;;;;;;;;;;20.30;99.90;;;;;;5095070;28;19928;-78
2021/07/25 08:43:39;;;;;;;;;;;20.20;99.90;;;;;;5095155;28;19977;-78
2021/07/25 08:46:08;;;;;;;;;;;20.20;99.90;;;;;;5094977;28;20028;-78
2021/07/25 08:48:37;;;;;;;;;;;20.10;99.90;;;;;;5094944;28;19924;-78
2021/07/25 08:51:04;;;;;;;;;;;20.10;99.90;;;;;;5094736;28;19950;-79
2021/07/25 08:53:33;;;;;;;;;;;20.20;99.90;;;;;;5094545;28;20330;-79
2021/07/25 08:55:59;;;;;;;;;;;20.10;99.90;;;;;;5094834;28;20355;-79
2021/07/25 08:58:26;;;;;;;;;;;20.10;99.90;;;;;;5075730;28;19930;-78
2021/07/25 09:00:54;;;;;;;;;;;20.10;99.90;;;;;;5074035;28;19925;-78
2021/07/25 09:03:21;;;;;;;;;;;20.10;99.90;;;;;;5074525;28;19925;-79
2021/07/25 09:05:49;;;;;;;;;;;20.10;99.90;;;;;;5074463;28;20257;-79
2021/07/25 09:08:16;;;;;;;;;;;20.00;99.90;;;;;;5076191;28;19924;-78
2021/07/25 09:10:43;;;;;;;;;;;19.90;99.90;;;;;;5078272;28;20253;-79
2021/07/25 09:13:10;;;;;;;;;;;19.90;99.90;;;;;;5078049;28;19925;-78
2021/07/25 09:15:37;;;;;;;;;;;19.90;99.90;;;;;;5078123;28;19924;-79
2021/07/25 09:18:04;;;;;;;;;;;20.00;99.90;;;;;;5078142;28;19978;-78
2021/07/25 09:20:31;;;;;;;;;;;20.00;99.90;;;;;;5077510;28;19925;-79
2021/07/25 09:23:02;;;;;;;;;;;20.00;99.90;;;;;;5077438;28;19952;-78
2021/07/25 09:25:30;;;;;;;;;;;20.00;99.90;;;;;;5077729;28;20334;-78
2021/07/25 09:28:13;;;;;;;;;;;20.10;99.90;;;;;;5077958;28;20277;-79
2021/07/25 09:30:40;;;;;;;;;;;20.20;99.90;;;;;;5077608;28;19924;-79
2021/07/25 09:33:25;;;;;;;;;;;20.30;99.90;;;;;;5076960;28;19925;-78
2021/07/25 09:35:52;;;;;;;;;;;20.50;99.90;;;;;;5077759;28;19928;-78
2021/07/25 09:38:20;;;;;;;;;;;20.70;99.90;;;;;;5077753;28;19947;-78
2021/07/25 09:40:47;;;;;;;;;;;20.70;99.90;;;;;;5077466;28;19925;-78
2021/07/25 09:43:15;;;;;;;;;;;20.70;99.90;;;;;;5077585;28;19924;-78
2021/07/25 09:45:55;;;;;;;;;;;20.70;99.90;;;;;;5077365;28;20027;-78
2021/07/25 09:48:23;;;;;;;;;;;20.80;99.90;;;;;;5077491;28;19980;-78
2021/07/25 09:50:50;;;;;;;;;;;20.90;99.90;;;;;;5077547;28;19990;-78
2021/07/25 09:53:17;;;;;;;;;;;20.90;99.90;;;;;;5089837;28;19924;-78
2021/07/25 09:55:45;;;;;;;;;;;21.00;99.90;;;;;;5097547;28;19931;-78
2021/07/25 09:58:12;;;;;;;;;;;21.00;99.90;;;;;;5097464;28;20281;-78
2021/07/25 10:00:39;;;;;;;;;;;20.90;99.90;;;;;;5097379;28;19930;-78
2021/07/25 10:03:21;;;;;;;;;;;20.80;99.90;;;;;;5097398;28;19924;-78
2021/07/25 10:05:48;;;;;;;;;;;20.70;99.90;;;;;;5097284;28;19924;-78
2021/07/25 10:08:15;;;;;;;;;;;20.60;99.90;;;;;;5097429;28;19934;-78
2021/07/25 10:10:42;;;;;;;;;;;20.70;99.90;;;;;;5097358;28;19935;-78
2021/07/25 10:13:10;;;;;;;;;;;20.70;99.90;;;;;;5097373;28;19925;-78
2021/07/25 10:15:37;;;;;;;;;;;20.80;99.90;;;;;;5097097;28;19924;-78
2021/07/25 10:18:04;;;;;;;;;;;20.80;99.90;;;;;;5096719;28;19925;-78
2021/07/25 10:20:31;;;;;;;;;;;20.90;99.90;;;;;;5097055;28;19924;-78
2021/07/25 10:22:58;;;;;;;;;;;20.90;99.90;;;;;;5096972;28;19934;-78
2021/07/25 10:25:25;;;;;;;;;;;20.90;99.90;;;;;;5096870;28;20360;-78
2021/07/25 10:27:53;;;;;;;;;;;20.80;99.90;;;;;;5097194;28;19924;-78
2021/07/25 10:30:21;;;;;;;;;;;20.70;99.90;;;;;;5097109;28;20265;-78
2021/07/25 10:32:48;;;;;;;;;;;20.70;99.90;;;;;;5096741;28;20316;-78
2021/07/25 10:35:17;;;;;;;;;;;20.60;99.90;;;;;;5096657;28;19924;-78
2021/07/25 10:37:44;;;;;;;;;;;20.60;99.90;;;;;;5099130;28;19930;-78
2021/07/25 10:40:11;;;;;;;;;;;20.70;99.90;;;;;;5096532;28;19924;-78
2021/07/25 10:42:39;;;;;;;;;;;20.70;99.90;;;;;;5096505;28;19924;-78
2021/07/25 10:45:10;;;;;;;;;;;20.70;99.90;;;;;;5096542;28;20361;-78
2021/07/25 10:47:38;;;;;;;;;;;20.80;99.90;;;;;;5096504;28;19930;-79
2021/07/25 10:50:05;;;;;;;;;;;20.90;99.90;;;;;;5096510;28;19935;-83
2021/07/25 10:52:50;;;;;;;;;;;20.90;99.90;;;;;;5096307;28;19932;-73
2021/07/25 10:55:31;;;;;;;;;;;21.00;99.90;;;;;;5095587;28;19923;-74
2021/07/25 10:58:02;;;;;;;;;;;21.10;99.90;;;;;;5095423;28;19930;-75
2021/07/25 11:00:38;;;;;;;;;;;21.10;99.90;;;;;;5096667;28;19924;-78
2021/07/25 11:03:06;;;;;;;;;;;21.00;99.90;;;;;;5096254;28;19924;-75
2021/07/25 11:05:33;;;;;;;;;;;21.00;99.90;;;;;;5095398;28;20272;-74
2021/07/25 11:08:00;;;;;;;;;;;21.00;99.90;;;;;;5096003;28;19924;-74
2021/07/25 11:10:30;;;;;;;;;;;21.00;99.90;;;;;;5096116;28;19931;-73
2021/07/25 11:13:18;;;;;;;;;;;21.00;99.90;;;;;;5095696;28;20270;-73
2021/07/25 11:15:45;;;;;;;;;;;21.10;99.90;;;;;;5095998;28;19924;-73
2021/07/25 11:18:16;;;;;;;;;;;21.10;99.90;;;;;;5095839;28;19939;-73
2021/07/25 11:20:44;;;;;;;;;;;21.10;99.90;;;;;;5095198;28;19976;-73
2021/07/25 11:23:12;;;;;;;;;;;20.90;99.90;;;;;;5095745;28;19982;-73
2021/07/25 11:25:39;;;;;;;;;;;20.90;99.90;;;;;;5095884;28;19924;-73
2021/07/25 11:28:06;;;;;;;;;;;20.90;99.90;;;;;;5095891;28;19924;-73
2021/07/25 11:30:51;;;;;;;;;;;20.90;99.90;;;;;;5094786;28;20265;-73
2021/07/25 11:33:37;;;;;;;;;;;20.90;99.90;;;;;;5095712;28;19978;-73
2021/07/25 11:36:05;;;;;;;;;;;21.00;99.90;;;;;;5095765;28;19924;-76
2021/07/25 11:38:32;;;;;;;;;;;21.00;99.90;;;;;;5095608;28;19928;-78
2021/07/25 11:40:59;;;;;;;;;;;20.90;99.90;;;;;;5095418;28;19924;-78
2021/07/25 11:43:26;;;;;;;;;;;20.90;99.90;;;;;;5095546;28;19934;-78
2021/07/25 11:45:53;;;;;;;;;;;20.90;99.90;;;;;;5095502;28;19924;-77
2021/07/25 11:48:20;;;;;;;;;;;20.80;99.90;;;;;;5095468;28;19934;-77
2021/07/25 11:50:47;;;;;;;;;;;20.80;99.90;;;;;;5095392;28;20274;-76
2021/07/25 11:53:15;;;;;;;;;;;20.90;99.90;;;;;;5095031;28;19924;-76
2021/07/25 11:55:42;;;;;;;;;;;20.90;99.90;;;;;;5095253;28;20246;-77
2021/07/25 11:58:09;;;;;;;;;;;21.10;99.90;;;;;;5095395;28;19924;-77
2021/07/25 12:00:36;;;;;;;;;;;21.20;99.90;;;;;;5095313;28;20296;-77
2021/07/25 12:03:03;;;;;;;;;;;21.30;99.90;;;;;;5095348;28;19934;-77
2021/07/25 12:05:30;;;;;;;;;;;21.40;99.90;;;;;;5095191;28;20268;-77
2021/07/25 12:07:57;;;;;;;;;;;21.50;99.90;;;;;;5095155;28;20367;-77
2021/07/25 12:10:29;;;;;;;;;;;21.60;99.90;;;;;;5093466;28;19924;-78
2021/07/25 12:13:02;;;;;;;;;;;21.60;99.90;;;;;;5095223;28;19985;-77
2021/07/25 12:15:29;;;;;;;;;;;21.60;99.90;;;;;;5095166;28;19924;-79
2021/07/25 12:17:56;;;;;;;;;;;21.70;99.90;;;;;;5095094;28;20018;-78
2021/07/25 12:20:31;;;;;;;;;;;21.70;99.90;;;;;;5094897;28;20342;-75
2021/07/25 12:22:59;;;;;;;;;;;21.50;99.90;;;;;;5095222;28;19935;-76
2021/07/25 12:25:26;;;;;;;;;;;21.40;99.90;;;;;;5094941;28;19927;-76
2021/07/25 12:28:04;;;;;;;;;;;21.20;99.90;;;;;;5095070;28;20022;-74
2021/07/25 12:30:39;;;;;;;;;;;21.00;99.90;;;;;;5094729;28;19928;-73
2021/07/25 12:33:06;;;;;;;;;;;20.90;99.90;;;;;;5094837;28;19935;-74
2021/07/25 12:35:32;;;;;;;;;;;20.80;99.90;;;;;;5095039;28;20034;-74
2021/07/25 12:38:00;;;;;;;;;;;20.80;99.90;;;;;;5094998;28;19924;-76
2021/07/25 12:40:27;;;;;;;;;;;20.80;99.90;;;;;;5095080;28;19924;-77
2021/07/25 12:43:05;;;;;;;;;;;20.80;99.90;;;;;;5098227;28;19985;-77
2021/07/25 12:45:39;;;;;;;;;;;20.90;99.90;;;;;;5098892;28;19924;-77
2021/07/25 12:48:36;;;;;;;;;;;21.00;99.90;;;;;;5098835;28;19924;-77
2021/07/25 12:53:56;;;;;;;;;;;21.20;99.90;;;;;;5089709;28;19993;-77
2021/07/25 12:56:23;;;;;;;;;;;21.30;99.90;;;;;;5098739;28;19924;-77
2021/07/25 12:58:53;;;;;;;;;;;21.40;99.90;;;;;;5098602;28;19924;-77
2021/07/25 13:04:05;;;;;;;;;;;21.50;99.90;;;;;;5098584;28;20078;-77
2021/07/25 13:06:34;;;;;;;;;;;21.60;99.90;;;;;;5098769;28;19924;-75
2021/07/25 13:09:01;;;;;;;;;;;21.50;99.90;;;;;;5098369;28;19963;-76
2021/07/25 13:11:29;;;;;;;;;;;21.40;99.90;;;;;;5098676;28;19924;-77
2021/07/25 13:13:58;;;;;;;;;;;21.40;99.90;;;;;;5098334;28;19924;-76
2021/07/25 13:16:24;;;;;;;;;;;21.30;99.90;;;;;;5098325;28;19999;-78
2021/07/25 13:18:52;;;;;;;;;;;21.30;99.90;;;;;;5098051;28;20026;-79
2021/07/25 13:21:18;;;;;;;;;;;21.30;99.90;;;;;;5098233;28;20261;-78
2021/07/25 13:23:45;;;;;;;;;;;21.30;99.90;;;;;;5097999;28;19924;-78
2021/07/25 13:26:12;;;;;;;;;;;21.30;99.90;;;;;;5097994;28;19936;-78
2021/07/25 13:28:39;;;;;;;;;;;21.40;99.90;;;;;;5097926;28;19931;-78
2021/07/25 13:31:07;;;;;;;;;;;21.50;99.90;;;;;;5097861;28;19924;-78
2021/07/25 13:33:34;;;;;;;;;;;21.50;99.90;;;;;;5098085;28;19924;-78
2021/07/25 13:36:01;;;;;;;;;;;21.60;99.90;;;;;;5098069;28;20353;-77
2021/07/25 13:38:28;;;;;;;;;;;21.80;99.90;;;;;;5097869;28;19934;-77
2021/07/25 13:40:55;;;;;;;;;;;21.90;99.90;;;;;;5097814;28;19924;-77
2021/07/25 13:43:23;;;;;;;;;;;22.10;99.90;;;;;;5098066;28;19954;-77
2021/07/25 13:45:53;;;;;;;;;;;22.30;99.90;;;;;;5097699;28;19924;-78
2021/07/25 13:48:21;;;;;;;;;;;22.40;99.90;;;;;;5098064;28;20018;-78
2021/07/25 13:50:48;;;;;;;;;;;22.50;99.90;;;;;;5097502;28;19934;-76
2021/07/25 13:53:15;;;;;;;;;;;22.50;99.90;;;;;;5096603;28;19924;-77
2021/07/25 13:55:42;;;;;;;;;;;22.50;99.90;;;;;;5096588;28;20222;-78
2021/07/25 13:58:09;;;;;;;;;;;22.40;99.90;;;;;;5097466;28;20345;-78
2021/07/25 14:00:36;;;;;;;;;;;22.40;99.90;;;;;;5097450;28;19935;-78
2021/07/25 14:03:04;;;;;;;;;;;22.20;99.90;;;;;;5097572;28;19940;-78
2021/07/25 14:05:34;;;;;;;;;;;22.10;99.90;;;;;;5097615;28;19935;-78
2021/07/25 14:08:01;;;;;;;;;;;22.00;99.90;;;;;;5097511;28;19924;-78
2021/07/25 14:10:28;;;;;;;;;;;21.80;99.90;;;;;;5097296;28;20345;-78
2021/07/25 14:12:54;;;;;;;;;;;21.70;99.90;;;;;;5097203;28;19931;-78
2021/07/25 14:15:21;;;;;;;;;;;21.60;99.90;;;;;;5097158;28;19924;-78
2021/07/25 14:17:48;;;;;;;;;;;21.60;99.90;;;;;;5097435;28;19924;-78
2021/07/25 14:20:15;;;;;;;;;;;21.50;99.90;;;;;;5097267;28;19924;-78
2021/07/25 14:22:43;;;;;;;;;;;21.50;99.90;;;;;;5097166;28;19950;-78
2021/07/25 14:25:11;;;;;;;;;;;21.50;99.90;;;;;;5097141;28;20069;-78
2021/07/25 14:27:37;;;;;;;;;;;21.60;99.90;;;;;;5096878;28;20338;-77